Marigola — IBEL — position and weather

sailwx.info

Track history (hours):
 
Tides and Currents Weather Stations Pressure Air Temp Water Temp Dewpoint Dewpoint Depression Visibility Wind Speed Wind Dir Waves Ship Positions

Marigola

Last reported at 2017-May-30 13:54 UTC. Time now 2017-Jul-22 08:38 UTC.
Position N 09°23' W 079°55'.
Warning: this ship's position is 52 days out of date.

Length 145 m; draft 8.4 m.

Type: Ship (hazmat cat A). MMSI: 247567000.

Date/timePositionNaut miles runAvg speedWind from/ knotsBaromVisibWave heightAir tempDewpointWater temp
2017-May-30 13:54N 09°23' W 079°55'2 5.2
2017-May-30 13:30N 09°25' W 079°56'3 4.9
2017-May-30 12:58N 09°24' W 079°57'0 0.1
2017-May-30 12:29N 09°24' W 079°57'  
2017-May-23 08:43N 09°35' W 079°47'313.2
2017-May-23 08:30N 09°33' W 079°49'714.5
2017-May-23 08:00N 09°27' W 079°54'510.7
2017-May-23 07:30N 09°22' W 079°55'2 4.5
2017-May-23 07:00N 09°20' W 079°55'3 5.1
2017-May-23 06:30N 09°17' W 079°55'1 1.3
2017-May-23 06:00N 09°16' W 079°55'0 0.8
2017-May-23 05:30N 09°16' W 079°55'1 2.8
2017-May-23 05:00N 09°15' W 079°55'4 6.6
2017-May-23 04:24N 09°11' W 079°53'  
Track history (hours):
 
Tides and Currents Weather Stations Pressure Air Temp Water Temp Dewpoint Dewpoint Depression Visibility Wind Speed Wind Dir Waves Ship Positions

Marigola

Last reported at 2017-May-30 13:54 UTC. Time now 2017-Jul-22 08:38 UTC.
Position N 09°23' W 079°55'.
Warning: this ship's position is 52 days out of date.

Length 145 m; draft 8.4 m.

Type: Ship (hazmat cat A). MMSI: 247567000.

Date/timePositionNaut miles runAvg speedWind from/ knotsBaromVisibWave heightAir tempDewpointWater temp
2017-May-30 13:54N 09°23' W 079°55'2 5.2
2017-May-30 13:30N 09°25' W 079°56'3 4.9
2017-May-30 12:58N 09°24' W 079°57'0 0.1
2017-May-30 12:29N 09°24' W 079°57'  
2017-May-23 08:43N 09°35' W 079°47'313.2
2017-May-23 08:30N 09°33' W 079°49'714.5
2017-May-23 08:00N 09°27' W 079°54'510.7
2017-May-23 07:30N 09°22' W 079°55'2 4.5
2017-May-23 07:00N 09°20' W 079°55'3 5.1
2017-May-23 06:30N 09°17' W 079°55'1 1.3
2017-May-23 06:00N 09°16' W 079°55'0 0.8
2017-May-23 05:30N 09°16' W 079°55'1 2.8
2017-May-23 05:00N 09°15' W 079°55'4 6.6
2017-May-23 04:24N 09°11' W 079°53'  

Dump ship's entire track history